createdAt,value
2019-05-05T00:00:48.840Z,0.00
2019-05-05T00:01:48.754Z,0.00
2019-05-05T00:03:41.661Z,0.00
2019-05-05T00:04:41.573Z,0.00
2019-05-05T00:06:34.425Z,0.00
2019-05-05T00:07:34.907Z,0.00
2019-05-05T00:09:27.180Z,0.00
2019-05-05T00:10:27.020Z,0.00
2019-05-05T00:12:19.836Z,0.00
2019-05-05T00:13:19.805Z,0.00
2019-05-05T00:15:14.502Z,0.00
2019-05-05T00:16:12.487Z,0.00
2019-05-05T00:18:05.517Z,0.00
2019-05-05T00:19:05.356Z,0.00
2019-05-05T00:20:58.071Z,0.00
2019-05-05T00:21:58.244Z,0.00
2019-05-05T00:23:50.769Z,0.00
2019-05-05T00:24:50.711Z,0.00
2019-05-05T00:26:43.536Z,0.00
2019-05-05T00:27:45.257Z,0.00
2019-05-05T00:29:36.156Z,0.00
2019-05-05T00:30:36.068Z,0.00
2019-05-05T00:32:28.837Z,0.00
2019-05-05T00:33:28.758Z,0.00
2019-05-05T00:35:21.571Z,0.00
2019-05-05T00:36:21.470Z,0.00
2019-05-05T00:38:14.438Z,0.00
2019-05-05T00:39:14.969Z,0.00
2019-05-05T00:41:07.061Z,0.00
2019-05-05T00:42:07.034Z,0.00
2019-05-05T00:43:59.846Z,0.00
2019-05-05T00:44:59.727Z,0.00
2019-05-05T00:46:52.541Z,0.00
2019-05-05T00:47:54.410Z,0.00
2019-05-05T00:49:49.050Z,0.00
2019-05-05T00:50:45.162Z,0.00
2019-05-05T00:52:38.020Z,0.00
2019-05-05T00:53:37.923Z,0.00
2019-05-05T00:55:30.672Z,0.00
2019-05-05T00:56:30.608Z,0.00
2019-05-05T00:58:24.739Z,0.00
2019-05-05T00:59:25.182Z,0.00
2019-05-05T01:01:16.172Z,0.00
2019-05-05T01:02:16.079Z,0.00
2019-05-05T01:04:08.881Z,0.00
2019-05-05T01:05:08.774Z,0.00
2019-05-05T01:07:01.635Z,0.00
2019-05-05T01:08:01.723Z,0.00
2019-05-05T01:09:54.403Z,0.00
2019-05-05T01:10:54.773Z,0.00
2019-05-05T01:12:47.063Z,0.00
2019-05-05T01:13:47.019Z,0.00
2019-05-05T01:15:39.837Z,0.00
2019-05-05T01:16:39.719Z,0.00
2019-05-05T01:18:34.969Z,0.00
2019-05-05T01:19:32.408Z,0.00
2019-05-05T01:21:25.354Z,0.00
2019-05-05T01:22:25.202Z,0.00
2019-05-05T01:24:18.014Z,0.00
2019-05-05T01:25:17.908Z,0.00
2019-05-05T01:27:10.747Z,0.00
2019-05-05T01:28:10.741Z,0.00
2019-05-05T01:30:04.769Z,0.00
2019-05-05T01:31:05.506Z,0.00
2019-05-05T01:32:56.254Z,0.00
2019-05-05T01:33:56.197Z,0.00
2019-05-05T01:35:48.932Z,0.00
2019-05-05T01:36:48.830Z,0.00
2019-05-05T01:38:41.745Z,0.00
2019-05-05T01:39:41.685Z,0.00
2019-05-05T01:41:34.881Z,0.00
2019-05-05T01:42:35.292Z,0.00
2019-05-05T01:44:27.179Z,0.00
2019-05-05T01:45:27.116Z,0.00
2019-05-05T01:47:19.851Z,0.00
2019-05-05T01:48:19.779Z,0.00
2019-05-05T01:50:18.438Z,0.00
2019-05-05T01:51:14.357Z,0.00
2019-05-05T01:53:05.729Z,0.00
2019-05-05T01:54:05.633Z,0.00
2019-05-05T01:55:54.242Z,0.00
2019-05-05T01:56:52.571Z,0.00
2019-05-05T01:58:45.428Z,0.00
2019-05-05T01:59:45.283Z,0.00
2019-05-05T02:01:38.067Z,0.00
2019-05-05T02:02:37.966Z,0.00
2019-05-05T02:04:30.729Z,0.00
2019-05-05T02:05:30.773Z,0.00
2019-05-05T02:07:25.038Z,0.00
2019-05-05T02:08:24.475Z,0.00
2019-05-05T02:10:16.218Z,0.00
2019-05-05T02:11:16.060Z,0.00
2019-05-05T02:13:08.993Z,0.00
2019-05-05T02:14:08.837Z,0.00
2019-05-05T02:16:01.671Z,0.00
2019-05-05T02:17:01.511Z,0.00
2019-05-05T02:18:54.591Z,0.00
2019-05-05T02:19:54.931Z,0.00
2019-05-05T02:21:47.153Z,0.00
2019-05-05T02:22:47.068Z,0.00
2019-05-05T02:24:39.852Z,0.00
2019-05-05T02:25:39.763Z,0.00
2019-05-05T02:27:34.317Z,0.00
2019-05-05T02:28:32.465Z,0.00
2019-05-05T02:30:26.726Z,0.00
2019-05-05T02:31:25.655Z,0.00
2019-05-05T02:33:18.001Z,0.00
2019-05-05T02:34:17.916Z,0.00
2019-05-05T02:36:10.711Z,0.00
2019-05-05T02:37:10.741Z,0.00
2019-05-05T02:39:05.436Z,0.00
2019-05-05T02:40:07.389Z,0.00
2019-05-05T02:41:56.129Z,0.00
2019-05-05T02:42:56.039Z,0.00
2019-05-05T02:44:48.862Z,0.00
2019-05-05T02:45:48.777Z,0.00
2019-05-05T02:47:41.720Z,0.00
2019-05-05T02:48:41.510Z,0.00
2019-05-05T02:50:51.100Z,0.00
2019-05-05T02:51:35.474Z,0.00
2019-05-05T02:53:27.040Z,0.00
2019-05-05T02:54:26.939Z,0.00
2019-05-05T02:56:19.779Z,0.00
2019-05-05T02:57:19.708Z,0.00
2019-05-05T02:59:14.612Z,0.00
2019-05-05T03:00:13.486Z,0.00
2019-05-05T03:02:05.206Z,0.00
2019-05-05T03:03:05.288Z,0.00
2019-05-05T03:04:57.892Z,0.00
2019-05-05T03:05:57.816Z,0.00
2019-05-05T03:07:50.673Z,0.00
2019-05-05T03:08:50.628Z,0.00
2019-05-05T03:10:44.289Z,0.00
2019-05-05T03:11:43.720Z,0.00
2019-05-05T03:13:36.334Z,0.00
2019-05-05T03:14:36.212Z,0.00
2019-05-05T03:16:29.098Z,0.00
2019-05-05T03:17:28.989Z,0.00
2019-05-05T03:19:23.551Z,0.00
2019-05-05T03:20:23.367Z,0.00
2019-05-05T03:22:14.592Z,0.00
2019-05-05T03:23:14.423Z,0.00
2019-05-05T03:25:07.428Z,0.00
2019-05-05T03:26:07.288Z,0.00
2019-05-05T03:28:00.066Z,5.63
2019-05-05T03:28:59.923Z,5.63
2019-05-05T03:30:55.822Z,5.63
2019-05-05T03:31:55.906Z,5.63
2019-05-05T03:33:46.184Z,5.63
2019-05-05T03:34:45.457Z,5.63
2019-05-05T03:36:38.357Z,5.63
2019-05-05T03:37:38.227Z,5.63
2019-05-05T03:39:31.084Z,11.25
2019-05-05T03:40:30.910Z,11.25
2019-05-05T03:42:24.523Z,11.25
2019-05-05T03:43:23.746Z,11.25
2019-05-05T03:45:16.583Z,11.25
2019-05-05T03:46:16.501Z,16.88
2019-05-05T03:48:09.329Z,16.88
2019-05-05T03:49:09.237Z,16.88
2019-05-05T03:51:16.014Z,16.88
2019-05-05T03:52:01.954Z,16.88
2019-05-05T03:53:54.778Z,22.50
2019-05-05T03:54:54.673Z,22.50
2019-05-05T03:56:47.532Z,22.50
2019-05-05T03:57:47.450Z,22.50
2019-05-05T03:59:40.310Z,22.50
2019-05-05T04:00:40.166Z,22.50
2019-05-05T04:02:34.044Z,28.13
2019-05-05T04:03:34.152Z,28.13
2019-05-05T04:05:26.167Z,28.13
2019-05-05T04:06:25.751Z,28.13
2019-05-05T04:08:18.483Z,33.75
2019-05-05T04:09:18.410Z,33.75
2019-05-05T04:11:11.244Z,33.75
2019-05-05T04:12:11.136Z,33.75
2019-05-05T04:14:03.985Z,39.38
2019-05-05T04:15:03.889Z,39.38
2019-05-05T04:16:56.716Z,39.38
2019-05-05T04:17:56.667Z,39.38
2019-05-05T04:19:49.426Z,39.38
2019-05-05T04:20:49.355Z,45.00
2019-05-05T04:22:43.520Z,45.00
2019-05-05T04:23:44.048Z,45.00
2019-05-05T04:25:35.172Z,45.00
2019-05-05T04:26:34.886Z,45.00
2019-05-05T04:28:27.654Z,50.63
2019-05-05T04:29:27.592Z,50.63
2019-05-05T04:31:20.408Z,50.63
2019-05-05T04:32:20.365Z,50.63
2019-05-05T04:34:13.516Z,50.63
2019-05-05T04:35:14.058Z,56.25
2019-05-05T04:37:06.628Z,56.25
2019-05-05T04:38:06.548Z,56.25
2019-05-05T04:39:59.340Z,56.25
2019-05-05T04:40:59.262Z,56.25
2019-05-05T04:42:54.443Z,61.88
2019-05-05T04:43:51.958Z,61.88
2019-05-05T04:45:45.009Z,61.88
2019-05-05T04:46:44.727Z,61.88
2019-05-05T04:48:37.560Z,61.88
2019-05-05T04:49:37.393Z,61.88
2019-05-05T04:51:44.011Z,67.50
2019-05-05T04:52:30.136Z,67.50
2019-05-05T04:54:24.390Z,67.50
2019-05-05T04:55:24.452Z,67.50
2019-05-05T04:57:15.679Z,73.13
2019-05-05T04:58:15.567Z,73.13
2019-05-05T05:00:08.387Z,78.75
2019-05-05T05:01:08.279Z,78.75
2019-05-05T05:03:01.079Z,78.75
2019-05-05T05:04:01.025Z,84.38
2019-05-05T05:05:53.906Z,84.38
2019-05-05T05:06:54.296Z,84.38
2019-05-05T05:08:46.618Z,90.00
2019-05-05T05:09:46.483Z,95.63
2019-05-05T05:11:39.275Z,106.88
2019-05-05T05:12:39.218Z,112.50
2019-05-05T05:14:33.733Z,135.00
2019-05-05T05:15:33.915Z,151.88
2019-05-05T05:17:25.045Z,219.38
2019-05-05T05:18:24.711Z,270.00
2019-05-05T05:20:17.471Z,410.63
2019-05-05T05:21:17.403Z,511.88
2019-05-05T05:23:10.274Z,658.13
2019-05-05T05:24:10.114Z,691.88
2019-05-05T05:26:04.860Z,708.75
2019-05-05T05:27:04.859Z,714.38
2019-05-05T05:28:55.647Z,731.25
2019-05-05T05:29:55.550Z,736.88
2019-05-05T05:31:48.436Z,748.13
2019-05-05T05:32:48.338Z,759.38
2019-05-05T05:34:41.138Z,765.00
2019-05-05T05:35:41.056Z,776.25
2019-05-05T05:37:34.339Z,787.50
2019-05-05T05:38:34.671Z,798.75
2019-05-05T05:40:26.703Z,804.38
2019-05-05T05:41:26.606Z,810.00
2019-05-05T05:43:19.500Z,826.88
2019-05-05T05:44:19.375Z,832.50
2019-05-05T05:46:13.606Z,843.75
2019-05-05T05:47:13.886Z,849.38
2019-05-05T05:49:04.977Z,860.63
2019-05-05T05:50:04.830Z,860.63
2019-05-05T05:51:57.721Z,871.88
2019-05-05T05:52:57.666Z,877.50
2019-05-05T05:54:50.570Z,877.50
2019-05-05T05:55:50.449Z,883.13
2019-05-05T05:57:43.930Z,888.75
2019-05-05T05:58:44.202Z,894.38
2019-05-05T06:00:36.155Z,900.00
2019-05-05T06:01:35.996Z,905.63
2019-05-05T06:03:28.809Z,916.88
2019-05-05T06:04:28.747Z,922.50
2019-05-05T06:06:21.503Z,939.38
2019-05-05T06:07:21.467Z,939.38
2019-05-05T06:09:14.826Z,945.00
2019-05-05T06:10:22.258Z,950.63
2019-05-05T06:12:07.012Z,961.88
2019-05-05T06:13:06.947Z,967.50
2019-05-05T06:14:59.708Z,973.13
2019-05-05T06:15:59.661Z,990.00
2019-05-05T06:17:53.946Z,990.00
2019-05-05T06:18:54.220Z,995.63
2019-05-05T06:20:45.250Z,1001.25
2019-05-05T06:21:45.183Z,1006.88
2019-05-05T06:23:38.035Z,1012.50
2019-05-05T06:24:37.932Z,1012.50
2019-05-05T06:26:30.796Z,1023.75
2019-05-05T06:27:30.718Z,1029.38
2019-05-05T06:29:23.892Z,1035.00
2019-05-05T06:30:24.355Z,1046.25
2019-05-05T06:32:16.290Z,1051.88
2019-05-05T06:33:16.177Z,1063.13
2019-05-05T06:35:09.010Z,1085.63
2019-05-05T06:36:08.971Z,1080.00
2019-05-05T06:38:01.894Z,1091.25
2019-05-05T06:39:01.677Z,1091.25
2019-05-05T06:40:54.493Z,1102.50
2019-05-05T06:41:54.475Z,1102.50
2019-05-05T06:43:47.349Z,1119.38
2019-05-05T06:44:47.309Z,1119.38
2019-05-05T06:46:40.042Z,1125.00
2019-05-05T06:47:39.977Z,1130.63
2019-05-05T06:49:34.487Z,1136.25
2019-05-05T06:50:34.387Z,1136.25
2019-05-05T06:52:25.763Z,1125.00
2019-05-05T06:53:25.669Z,1119.38
2019-05-05T06:55:18.496Z,1119.38
2019-05-05T06:56:18.403Z,1113.75
2019-05-05T06:58:11.297Z,1119.38
2019-05-05T06:59:11.164Z,1136.25
2019-05-05T07:01:04.113Z,1153.13
2019-05-05T07:02:04.367Z,1158.75
2019-05-05T07:03:56.783Z,1170.00
2019-05-05T07:04:56.711Z,1175.63
2019-05-05T07:06:54.009Z,1186.88
2019-05-05T07:07:49.540Z,1198.13
2019-05-05T07:09:44.260Z,1203.75
2019-05-05T07:10:44.280Z,1203.75
2019-05-05T07:12:35.185Z,1203.75
2019-05-05T07:13:35.125Z,1203.75
2019-05-05T07:15:29.631Z,1220.63
2019-05-05T07:16:29.515Z,1231.88
2019-05-05T07:18:24.540Z,1237.50
2019-05-05T07:19:23.923Z,1237.50
2019-05-05T07:21:15.141Z,1248.75
2019-05-05T07:22:17.586Z,1254.38
2019-05-05T07:24:08.105Z,1265.63
2019-05-05T07:25:07.795Z,1271.25
2019-05-05T07:27:00.608Z,1271.25
2019-05-05T07:28:00.607Z,1260.00
2019-05-05T07:29:54.153Z,1260.00
2019-05-05T07:30:54.776Z,1265.63
2019-05-05T07:32:46.391Z,1265.63
2019-05-05T07:33:46.351Z,1260.00
2019-05-05T07:35:52.019Z,1254.38
2019-05-05T07:36:39.021Z,1276.88
2019-05-05T07:38:33.761Z,1299.38
2019-05-05T07:39:33.993Z,1316.25
2019-05-05T07:41:24.631Z,1338.75
2019-05-05T07:42:24.573Z,1344.38
2019-05-05T07:44:26.513Z,1361.25
2019-05-05T07:45:22.418Z,1372.50
2019-05-05T07:47:10.138Z,1417.50
2019-05-05T07:48:10.153Z,1440.00
2019-05-05T07:50:04.119Z,438.75
2019-05-05T07:51:05.280Z,1395.00
2019-05-05T07:52:55.679Z,1479.38
2019-05-05T07:53:55.595Z,1479.38
2019-05-05T07:55:48.373Z,1518.75
2019-05-05T07:56:48.311Z,1530.00
2019-05-05T07:58:41.133Z,1501.88
2019-05-05T07:59:41.118Z,568.13
2019-05-05T08:01:34.019Z,303.75
2019-05-05T08:02:33.999Z,270.00
2019-05-05T08:04:26.762Z,213.75
2019-05-05T08:05:26.762Z,258.75
2019-05-05T08:07:19.669Z,1513.13
2019-05-05T08:08:19.407Z,680.63
2019-05-05T08:10:13.670Z,1501.88
2019-05-05T08:11:14.502Z,1507.50
2019-05-05T08:13:05.309Z,1513.13
2019-05-05T08:14:05.117Z,1513.13
2019-05-05T08:16:00.127Z,1518.75
2019-05-05T08:16:57.958Z,1530.00
2019-05-05T08:18:51.091Z,1530.00
2019-05-05T08:19:50.942Z,1535.63
2019-05-05T08:21:43.880Z,1552.50
2019-05-05T08:22:44.305Z,506.25
2019-05-05T08:24:36.816Z,388.13
2019-05-05T08:25:40.160Z,315.00
2019-05-05T08:27:29.599Z,286.88
2019-05-05T08:28:29.470Z,298.13
2019-05-05T08:30:24.315Z,281.25
2019-05-05T08:31:22.268Z,568.13
2019-05-05T08:33:15.212Z,1462.50
2019-05-05T08:34:15.200Z,1462.50
2019-05-05T08:36:07.976Z,1507.50
2019-05-05T08:37:07.918Z,1485.00
2019-05-05T08:39:00.755Z,1496.25
2019-05-05T08:40:00.757Z,1496.25
2019-05-05T08:41:53.882Z,331.88
2019-05-05T08:42:54.049Z,292.50
2019-05-05T08:44:46.832Z,1451.25
2019-05-05T08:45:46.710Z,1440.00
2019-05-05T08:47:39.546Z,1406.25
2019-05-05T08:48:39.470Z,1406.25
2019-05-05T08:50:34.619Z,1389.38
2019-05-05T08:51:33.935Z,1406.25
2019-05-05T08:53:25.022Z,1361.25
2019-05-05T08:54:24.961Z,1417.50
2019-05-05T08:56:18.022Z,1170.00
2019-05-05T08:57:17.857Z,309.38
2019-05-05T08:59:10.761Z,1158.75
2019-05-05T09:00:10.676Z,1147.50
2019-05-05T09:02:04.511Z,528.75
2019-05-05T09:03:03.949Z,1350.00
2019-05-05T09:04:56.354Z,1327.50
2019-05-05T09:05:56.309Z,517.50
2019-05-05T09:07:49.196Z,264.38
2019-05-05T09:08:49.082Z,236.25
2019-05-05T09:10:41.883Z,1248.75
2019-05-05T09:11:43.825Z,1215.00
2019-05-05T09:13:34.690Z,1186.88
2019-05-05T09:14:34.715Z,1181.25
2019-05-05T09:16:27.440Z,1181.25
2019-05-05T09:17:28.110Z,1170.00
2019-05-05T09:19:20.192Z,1153.13
2019-05-05T09:20:20.170Z,1147.50
2019-05-05T09:22:14.104Z,1141.88
2019-05-05T09:23:14.759Z,1136.25
2019-05-05T09:25:07.622Z,1125.00
2019-05-05T09:26:07.443Z,1130.63
2019-05-05T09:28:02.995Z,1119.38
2019-05-05T09:29:00.264Z,1113.75
2019-05-05T09:30:53.726Z,1108.13
2019-05-05T09:31:54.066Z,1108.13
2019-05-05T09:33:46.058Z,1091.25
2019-05-05T09:34:45.868Z,1091.25
2019-05-05T09:36:38.782Z,1091.25
2019-05-05T09:37:38.701Z,1113.75
2019-05-05T09:39:31.495Z,1113.75
2019-05-05T09:40:33.394Z,1125.00
2019-05-05T09:42:24.333Z,1153.13
2019-05-05T09:43:24.244Z,1164.38
2019-05-05T09:45:17.318Z,1192.50
2019-05-05T09:46:17.260Z,1226.25
2019-05-05T09:48:10.130Z,247.50
2019-05-05T09:49:10.110Z,225.00
2019-05-05T09:51:04.381Z,213.75
2019-05-05T09:52:04.791Z,208.13
2019-05-05T09:53:55.948Z,202.50
2019-05-05T09:54:55.668Z,230.63
2019-05-05T09:56:48.398Z,1063.13
2019-05-05T09:57:48.324Z,1085.63
2019-05-05T09:59:41.302Z,1113.75
2019-05-05T10:00:41.226Z,1057.50
2019-05-05T10:02:34.526Z,258.75
2019-05-05T10:03:34.159Z,253.13
2019-05-05T10:05:27.157Z,241.88
2019-05-05T10:06:26.904Z,236.25
2019-05-05T10:08:19.792Z,230.63
2019-05-05T10:09:19.687Z,225.00
2019-05-05T10:11:12.495Z,213.75
2019-05-05T10:12:12.447Z,208.13
2019-05-05T10:14:05.269Z,196.88
2019-05-05T10:15:07.501Z,202.50
2019-05-05T10:16:57.989Z,208.13
2019-05-05T10:17:57.933Z,208.13
2019-05-05T10:19:50.735Z,213.75
2019-05-05T10:20:50.649Z,213.75
2019-05-05T10:22:43.904Z,219.38
2019-05-05T10:23:43.705Z,236.25
2019-05-05T10:25:36.482Z,281.25
2019-05-05T10:26:36.344Z,281.25
2019-05-05T10:28:29.571Z,506.25
2019-05-05T10:29:29.259Z,478.13
2019-05-05T10:31:24.019Z,270.00
2019-05-05T10:32:21.986Z,247.50
2019-05-05T10:34:14.828Z,247.50
2019-05-05T10:35:14.756Z,241.88
2019-05-05T10:37:07.762Z,230.63
2019-05-05T10:38:07.552Z,236.25
2019-05-05T10:40:00.348Z,241.88
2019-05-05T10:41:00.285Z,247.50
2019-05-05T10:42:53.927Z,253.13
2019-05-05T10:43:54.176Z,264.38
2019-05-05T10:45:45.934Z,270.00
2019-05-05T10:46:45.871Z,264.38
2019-05-05T10:48:38.672Z,253.13
2019-05-05T10:49:38.664Z,258.75
2019-05-05T10:51:31.703Z,264.38
2019-05-05T10:52:31.390Z,258.75
2019-05-05T10:54:24.345Z,264.38
2019-05-05T10:55:24.324Z,270.00
2019-05-05T10:57:18.483Z,270.00
2019-05-05T10:58:16.908Z,270.00
2019-05-05T11:00:12.698Z,264.38
2019-05-05T11:01:09.845Z,270.00
2019-05-05T11:03:03.989Z,275.63
2019-05-05T11:04:02.483Z,270.00
2019-05-05T11:05:55.376Z,298.13
2019-05-05T11:06:55.259Z,298.13
2019-05-05T11:08:48.205Z,281.25
2019-05-05T11:09:48.037Z,253.13
2019-05-05T11:11:40.867Z,253.13
2019-05-05T11:12:40.815Z,253.13
2019-05-05T11:14:33.796Z,253.13
2019-05-05T11:15:33.653Z,258.75
2019-05-05T11:17:26.366Z,258.75
2019-05-05T11:18:26.283Z,258.75
2019-05-05T11:20:19.177Z,270.00
2019-05-05T11:21:19.084Z,270.00
2019-05-05T11:23:11.864Z,286.88
2019-05-05T11:24:11.831Z,292.50
2019-05-05T11:26:04.650Z,275.63
2019-05-05T11:27:04.618Z,270.00
2019-05-05T11:28:57.335Z,258.75
2019-05-05T11:29:57.295Z,253.13
2019-05-05T11:31:50.073Z,241.88
2019-05-05T11:32:50.132Z,241.88
2019-05-05T11:34:44.258Z,230.63
2019-05-05T11:35:44.429Z,230.63
2019-05-05T11:37:35.557Z,230.63
2019-05-05T11:38:35.471Z,196.88
2019-05-05T11:40:28.384Z,202.50
2019-05-05T11:41:28.305Z,208.13
2019-05-05T11:43:21.076Z,202.50
2019-05-05T11:44:21.075Z,202.50
2019-05-05T11:46:14.222Z,191.25
2019-05-05T11:47:14.056Z,191.25
2019-05-05T11:49:06.767Z,208.13
2019-05-05T11:50:06.667Z,230.63
2019-05-05T11:51:59.429Z,213.75
2019-05-05T11:52:59.375Z,225.00
2019-05-05T11:54:54.286Z,225.00
2019-05-05T11:55:52.081Z,219.38
2019-05-05T11:57:44.905Z,225.00
2019-05-05T11:58:44.892Z,225.00
2019-05-05T12:00:38.518Z,230.63
2019-05-05T12:01:38.400Z,230.63
2019-05-05T12:03:31.200Z,236.25
2019-05-05T12:04:31.131Z,230.63
2019-05-05T12:06:24.669Z,236.25
2019-05-05T12:07:23.899Z,258.75
2019-05-05T12:09:16.707Z,236.25
2019-05-05T12:10:16.601Z,225.00
2019-05-05T12:12:09.387Z,225.00
2019-05-05T12:13:09.330Z,225.00
2019-05-05T12:15:04.227Z,225.00
2019-05-05T12:16:04.364Z,241.88
2019-05-05T12:17:55.133Z,247.50
2019-05-05T12:18:55.065Z,225.00
2019-05-05T12:20:48.016Z,236.25
2019-05-05T12:21:47.875Z,241.88
2019-05-05T12:23:40.745Z,247.50
2019-05-05T12:24:40.688Z,264.38
2019-05-05T12:26:34.723Z,270.00
2019-05-05T12:27:33.957Z,247.50
2019-05-05T12:29:26.216Z,270.00
2019-05-05T12:30:26.151Z,241.88
2019-05-05T12:32:18.932Z,247.50
2019-05-05T12:33:18.873Z,247.50
2019-05-05T12:35:11.770Z,241.88
2019-05-05T12:36:11.687Z,236.25
2019-05-05T12:38:04.515Z,230.63
2019-05-05T12:39:04.414Z,219.38
2019-05-05T12:40:57.282Z,202.50
2019-05-05T12:41:57.229Z,196.88
2019-05-05T12:43:50.155Z,185.63
2019-05-05T12:44:50.035Z,180.00
2019-05-05T12:46:44.212Z,168.75
2019-05-05T12:47:43.997Z,168.75
2019-05-05T12:49:35.494Z,157.50
2019-05-05T12:50:35.393Z,157.50
2019-05-05T12:52:28.194Z,146.25
2019-05-05T12:53:28.254Z,140.63
2019-05-05T12:55:20.944Z,140.63
2019-05-05T12:56:20.866Z,140.63
2019-05-05T12:58:13.944Z,140.63
2019-05-05T12:59:14.298Z,146.25
2019-05-05T13:01:06.421Z,146.25
2019-05-05T13:02:06.339Z,151.88
2019-05-05T13:03:59.139Z,157.50
2019-05-05T13:04:59.070Z,163.13
2019-05-05T13:06:53.922Z,174.38
2019-05-05T13:07:51.747Z,180.00
2019-05-05T13:09:44.602Z,185.63
2019-05-05T13:10:44.489Z,191.25
2019-05-05T13:12:37.315Z,202.50
2019-05-05T13:13:37.207Z,213.75
2019-05-05T13:15:30.423Z,230.63
2019-05-05T13:16:29.919Z,236.25
2019-05-05T13:18:24.536Z,241.88
2019-05-05T13:19:24.189Z,247.50
2019-05-05T13:21:15.505Z,247.50
2019-05-05T13:22:15.740Z,247.50
2019-05-05T13:24:08.194Z,247.50
2019-05-05T13:25:08.119Z,247.50
2019-05-05T13:27:00.979Z,247.50
2019-05-05T13:28:00.857Z,247.50
2019-05-05T13:29:53.769Z,241.88
2019-05-05T13:30:54.129Z,236.25
2019-05-05T13:32:46.421Z,230.63
2019-05-05T13:33:46.352Z,225.00
2019-05-05T13:35:39.150Z,225.00
2019-05-05T13:36:39.061Z,225.00
2019-05-05T13:38:31.875Z,219.38
2019-05-05T13:39:33.904Z,213.75
2019-05-05T13:41:24.626Z,208.13
2019-05-05T13:42:24.549Z,208.13
2019-05-05T13:44:17.280Z,202.50
2019-05-05T13:45:17.215Z,202.50
2019-05-05T13:47:10.038Z,196.88
2019-05-05T13:48:09.939Z,191.25
2019-05-05T13:50:03.674Z,180.00
2019-05-05T13:51:04.283Z,174.38
2019-05-05T13:52:55.521Z,163.13
2019-05-05T13:53:55.359Z,163.13
2019-05-05T13:55:48.142Z,168.75
2019-05-05T13:56:48.082Z,168.75
2019-05-05T13:58:40.950Z,185.63
2019-05-05T13:59:40.823Z,191.25
2019-05-05T14:01:34.247Z,191.25
2019-05-05T14:02:33.730Z,191.25
2019-05-05T14:04:26.520Z,191.25
2019-05-05T14:05:26.456Z,196.88
2019-05-05T14:07:19.425Z,196.88
2019-05-05T14:08:19.350Z,196.88
2019-05-05T14:10:14.257Z,191.25
2019-05-05T14:11:14.078Z,191.25
2019-05-05T14:13:04.911Z,196.88
2019-05-05T14:14:04.889Z,208.13
2019-05-05T14:15:57.730Z,202.50
2019-05-05T14:16:57.701Z,202.50
2019-05-05T14:18:50.516Z,191.25
2019-05-05T14:20:04.195Z,163.13
2019-05-05T14:21:44.641Z,146.25
2019-05-05T14:22:43.847Z,129.38
2019-05-05T14:24:35.068Z,118.13
2019-05-05T14:25:35.024Z,118.13
2019-05-05T14:27:27.757Z,118.13
2019-05-05T14:28:27.683Z,118.13
2019-05-05T14:30:20.564Z,112.50
2019-05-05T14:31:20.492Z,112.50
2019-05-05T14:33:13.329Z,112.50
2019-05-05T14:34:13.970Z,106.88
2019-05-05T14:36:06.111Z,106.88
2019-05-05T14:37:05.895Z,106.88
2019-05-05T14:38:58.848Z,118.13
2019-05-05T14:39:58.709Z,118.13
2019-05-05T14:41:53.808Z,157.50
2019-05-05T14:42:51.469Z,151.88
2019-05-05T14:44:44.246Z,123.75
2019-05-05T14:45:44.414Z,123.75
2019-05-05T14:47:36.990Z,123.75
2019-05-05T14:48:37.269Z,123.75
2019-05-05T14:50:29.934Z,118.13
2019-05-05T14:51:29.671Z,135.00
2019-05-05T14:53:24.109Z,112.50
2019-05-05T14:54:22.423Z,118.13
2019-05-05T14:56:15.239Z,101.25
2019-05-05T14:57:15.162Z,112.50
2019-05-05T14:59:07.996Z,95.63
2019-05-05T15:00:07.936Z,106.88
2019-05-05T15:02:00.729Z,101.25
2019-05-05T15:03:00.881Z,101.25
2019-05-05T15:04:55.738Z,112.50
2019-05-05T15:05:54.804Z,112.50
2019-05-05T15:07:47.208Z,118.13
2019-05-05T15:08:47.060Z,118.13
2019-05-05T15:10:39.974Z,118.13
2019-05-05T15:11:39.759Z,118.13
2019-05-05T15:13:33.606Z,129.38
2019-05-05T15:14:32.528Z,135.00
2019-05-05T15:16:25.440Z,129.38
2019-05-05T15:17:25.284Z,129.38
2019-05-05T15:19:18.060Z,123.75
2019-05-05T15:20:17.940Z,123.75
2019-05-05T15:22:10.924Z,123.75
2019-05-05T15:23:10.719Z,123.75
2019-05-05T15:25:04.194Z,129.38
2019-05-05T15:26:04.459Z,129.38
2019-05-05T15:27:56.316Z,123.75
2019-05-05T15:28:59.297Z,163.13
2019-05-05T15:30:49.037Z,163.13
2019-05-05T15:31:48.958Z,168.75
2019-05-05T15:33:41.822Z,140.63
2019-05-05T15:34:43.767Z,151.88
2019-05-05T15:36:34.489Z,163.13
2019-05-05T15:37:34.601Z,163.13
2019-05-05T17:46:03.888Z,33.75
2019-05-05T17:47:04.456Z,28.13
2019-05-05T17:48:56.345Z,28.13
2019-05-05T17:49:57.572Z,33.75
2019-05-05T17:51:48.810Z,28.13
2019-05-05T17:52:49.287Z,28.13
2019-05-05T17:54:41.535Z,22.50
2019-05-05T17:55:44.351Z,22.50
2019-05-05T17:57:34.575Z,22.50
2019-05-05T17:58:34.167Z,22.50
2019-05-05T18:00:26.994Z,22.50
2019-05-05T18:01:26.872Z,22.50
2019-05-05T18:03:19.715Z,16.88
2019-05-05T18:04:19.643Z,16.88
2019-05-05T18:06:14.315Z,16.88
2019-05-05T18:07:14.278Z,16.88
2019-05-05T18:09:06.683Z,16.88
2019-05-05T18:10:05.715Z,16.88
2019-05-05T18:11:58.828Z,16.88
2019-05-05T18:12:58.699Z,16.88
2019-05-05T18:14:51.277Z,11.25
2019-05-05T18:15:51.193Z,11.25
2019-05-05T18:17:44.112Z,11.25
2019-05-05T18:18:44.431Z,11.25
2019-05-05T18:20:36.949Z,5.63
2019-05-05T18:21:36.784Z,5.63
2019-05-05T18:23:30.126Z,5.63
2019-05-05T18:24:30.059Z,5.63
2019-05-05T18:26:24.329Z,5.63
2019-05-05T18:27:23.686Z,5.63
2019-05-05T18:29:16.024Z,5.63
2019-05-05T18:30:15.941Z,5.63
2019-05-05T18:32:08.790Z,0.00
2019-05-05T18:33:08.710Z,0.00
2019-05-05T18:35:04.477Z,0.00
2019-05-05T18:36:01.408Z,0.00
2019-05-05T18:37:54.570Z,0.00
2019-05-05T18:38:54.535Z,0.00
2019-05-05T18:40:47.295Z,0.00
2019-05-05T18:41:47.207Z,0.00
2019-05-05T18:43:40.313Z,0.00
2019-05-05T18:44:39.998Z,0.00
2019-05-05T18:46:33.931Z,0.00
2019-05-05T18:47:34.064Z,0.00
2019-05-05T18:49:24.661Z,0.00
2019-05-05T18:50:24.521Z,0.00
2019-05-05T18:52:17.252Z,0.00
2019-05-05T18:53:17.173Z,0.00
2019-05-05T18:55:10.837Z,0.00
2019-05-05T18:56:09.907Z,0.00
2019-05-05T18:58:02.789Z,0.00
2019-05-05T18:59:06.487Z,0.00
2019-05-05T19:00:55.660Z,0.00
2019-05-05T19:01:55.510Z,0.00
2019-05-05T19:03:48.376Z,0.00
2019-05-05T19:04:48.709Z,0.00
2019-05-05T19:06:41.430Z,0.00
2019-05-05T19:07:54.493Z,0.00
2019-05-05T19:09:34.010Z,0.00
2019-05-05T19:10:33.802Z,0.00
2019-05-05T19:12:26.680Z,0.00
2019-05-05T19:13:26.575Z,0.00
2019-05-05T19:15:20.177Z,0.00
2019-05-05T19:16:20.099Z,0.00
2019-05-05T19:18:14.034Z,0.00
2019-05-05T19:19:14.307Z,0.00
2019-05-05T19:21:06.270Z,0.00
2019-05-05T19:22:05.621Z,0.00
2019-05-05T19:23:58.480Z,0.00
2019-05-05T19:24:58.447Z,0.00
2019-05-05T19:26:51.456Z,0.00
2019-05-05T19:27:51.132Z,0.00
2019-05-05T19:29:46.211Z,0.00
2019-05-05T19:30:44.192Z,0.00
2019-05-05T19:32:36.910Z,0.00
2019-05-05T19:33:36.608Z,0.00
2019-05-05T19:35:40.133Z,0.00
2019-05-05T19:36:29.319Z,0.00
2019-05-05T19:38:23.707Z,0.00
2019-05-05T19:39:24.162Z,0.00
2019-05-05T19:41:15.070Z,0.00
2019-05-05T19:42:14.979Z,0.00
2019-05-05T19:44:07.753Z,0.00
2019-05-05T19:45:07.765Z,0.00
2019-05-05T19:47:00.596Z,0.00
2019-05-05T19:48:00.410Z,0.00
2019-05-05T19:49:53.215Z,0.00
2019-05-05T19:50:54.213Z,0.00
2019-05-05T19:52:46.634Z,0.00
2019-05-05T19:53:45.976Z,0.00
2019-05-05T19:55:38.805Z,0.00
2019-05-05T19:56:38.677Z,0.00
2019-05-05T19:58:31.516Z,0.00
2019-05-05T19:59:31.420Z,0.00
2019-05-05T20:01:34.813Z,0.00
2019-05-05T20:02:24.120Z,0.00
2019-05-05T20:04:16.939Z,0.00
2019-05-05T20:05:16.886Z,0.00
2019-05-05T20:07:09.756Z,0.00
2019-05-05T20:08:09.646Z,0.00
2019-05-05T20:10:04.013Z,0.00
2019-05-05T20:11:04.590Z,0.00
2019-05-05T20:12:55.218Z,0.00
2019-05-05T20:14:06.712Z,0.00
2019-05-05T20:15:48.215Z,0.00
2019-05-05T20:16:47.975Z,0.00
2019-05-05T20:18:40.782Z,0.00
2019-05-05T20:19:40.661Z,0.00
2019-05-05T20:21:34.667Z,0.00
2019-05-05T20:22:34.809Z,0.00
2019-05-05T20:24:26.324Z,0.00